PRF423 HTZA-HTDA
Flight info
| Callsign | PRF423 |
|---|---|
| Flight time | 0h 16m |
| Altitude | 8000 |
| Route | ZV DCT DV |
| Aircraft | AT76/M-SDFGIRY/S |
Departure
| Time | 2026-05-04 21:22 |
|---|---|
| Airport | Abeid Amani Karume International Airport (HTZA) |
Arrival
| Time | 2026-05-04 21:38 |
|---|---|
| Airport | Julius Nyerere International Airport (HTDA) |
| Time | Latitude | Longitude | Altitude | Speed | Heading |
|---|---|---|---|---|---|
| 2026-05-04 20:48 | -6.22070 | 39.22228 | 57 ft | 0 kts | 265° |
| 2026-05-04 21:16 | -6.22071 | 39.22226 | 57 ft | 0 kts | 247° |
| 2026-05-04 21:17 | -6.22079 | 39.22229 | 53 ft | 3 kts | 163° |
| 2026-05-04 21:17 | -6.22095 | 39.22240 | 53 ft | 2 kts | 119° |
| 2026-05-04 21:17 | -6.22101 | 39.22259 | 56 ft | 3 kts | 98° |
| 2026-05-04 21:17 | -6.22101 | 39.22292 | 56 ft | 6 kts | 78° |
| 2026-05-04 21:18 | -6.22056 | 39.22306 | 56 ft | 9 kts | 354° |
| 2026-05-04 21:18 | -6.21985 | 39.22298 | 56 ft | 12 kts | 353° |
| 2026-05-04 21:18 | -6.21885 | 39.22288 | 56 ft | 16 kts | 355° |
| 2026-05-04 21:18 | -6.21791 | 39.22279 | 55 ft | 11 kts | 3° |
| 2026-05-04 21:19 | -6.21767 | 39.22326 | 57 ft | 7 kts | 85° |
| 2026-05-04 21:19 | -6.21764 | 39.22362 | 58 ft | 0 kts | 84° |
| 2026-05-04 21:20 | -6.21763 | 39.22371 | 58 ft | 4 kts | 84° |
| 2026-05-04 21:20 | -6.21748 | 39.22438 | 71 ft | 6 kts | 103° |
| 2026-05-04 21:21 | -6.21761 | 39.22447 | 59 ft | 1 kts | 161° |
| 2026-05-04 21:21 | -6.21841 | 39.22453 | 59 ft | 39 kts | 175° |
| 2026-05-04 21:21 | -6.22330 | 39.22502 | 54 ft | 100 kts | 176° |
| 2026-05-04 21:21 | -6.23160 | 39.22597 | 206 ft | 130 kts | 173° |
| 2026-05-04 21:22 | -6.24046 | 39.22717 | 818 ft | 128 kts | 172° |
| 2026-05-04 21:22 | -6.24927 | 39.22859 | 1401 ft | 128 kts | 169° |
| 2026-05-04 21:22 | -6.25880 | 39.23034 | 1470 ft | 154 kts | 171° |
| 2026-05-04 21:22 | -6.26997 | 39.23225 | 1688 ft | 166 kts | 170° |
| 2026-05-04 21:23 | -6.28046 | 39.23638 | 2049 ft | 163 kts | 149° |
| 2026-05-04 21:23 | -6.29021 | 39.24242 | 2385 ft | 165 kts | 150° |
| 2026-05-04 21:23 | -6.30024 | 39.24806 | 2771 ft | 165 kts | 153° |
| 2026-05-04 21:23 | -6.31034 | 39.25337 | 3146 ft | 165 kts | 154° |
| 2026-05-04 21:24 | -6.32061 | 39.25864 | 3511 ft | 166 kts | 155° |
| 2026-05-04 21:24 | -6.33089 | 39.26381 | 3864 ft | 166 kts | 155° |
| 2026-05-04 21:24 | -6.34121 | 39.26897 | 4210 ft | 166 kts | 155° |
| 2026-05-04 21:24 | -6.35168 | 39.27417 | 4541 ft | 168 kts | 156° |
| 2026-05-04 21:25 | -6.36218 | 39.27934 | 4893 ft | 167 kts | 156° |
| 2026-05-04 21:25 | -6.37266 | 39.28449 | 5213 ft | 169 kts | 156° |
| 2026-05-04 21:25 | -6.38325 | 39.28967 | 5521 ft | 171 kts | 156° |
| 2026-05-04 21:25 | -6.39400 | 39.29492 | 5846 ft | 172 kts | 156° |
| 2026-05-04 21:26 | -6.40484 | 39.30023 | 6151 ft | 174 kts | 156° |
| 2026-05-04 21:26 | -6.41579 | 39.30554 | 6451 ft | 176 kts | 156° |
| 2026-05-04 21:26 | -6.42681 | 39.31095 | 6744 ft | 177 kts | 155° |
| 2026-05-04 21:26 | -6.43793 | 39.31640 | 7030 ft | 179 kts | 155° |
| 2026-05-04 21:27 | -6.44914 | 39.32194 | 7336 ft | 180 kts | 154° |
| 2026-05-04 21:27 | -6.46032 | 39.32762 | 7617 ft | 181 kts | 153° |
| 2026-05-04 21:27 | -6.47163 | 39.33340 | 7848 ft | 186 kts | 154° |
| 2026-05-04 21:27 | -6.48352 | 39.33937 | 7926 ft | 197 kts | 154° |
| 2026-05-04 21:28 | -6.49618 | 39.34565 | 7969 ft | 208 kts | 154° |
| 2026-05-04 21:28 | -6.50949 | 39.35221 | 7983 ft | 218 kts | 154° |
| 2026-05-04 21:28 | -6.52337 | 39.35909 | 7990 ft | 225 kts | 154° |
| 2026-05-04 21:28 | -6.53731 | 39.36602 | 7992 ft | 231 kts | 154° |
| 2026-05-04 21:29 | -6.55206 | 39.37342 | 7988 ft | 235 kts | 153° |
| 2026-05-04 21:29 | -6.56677 | 39.38075 | 7798 ft | 245 kts | 154° |
| 2026-05-04 21:29 | -6.58230 | 39.38847 | 7500 ft | 247 kts | 154° |
| 2026-05-04 21:29 | -6.59730 | 39.39577 | 7224 ft | 234 kts | 155° |
| 2026-05-04 21:30 | -6.61171 | 39.40288 | 6983 ft | 230 kts | 154° |
| 2026-05-04 21:30 | -6.62612 | 39.41007 | 6750 ft | 232 kts | 154° |
| 2026-05-04 21:30 | -6.64071 | 39.41698 | 6468 ft | 231 kts | 161° |
| 2026-05-04 21:30 | -6.65653 | 39.41711 | 6138 ft | 229 kts | 197° |
| 2026-05-04 21:31 | -6.68175 | 39.40021 | 5491 ft | 211 kts | 219° |
| 2026-05-04 21:31 | -6.69203 | 39.38998 | 5192 ft | 205 kts | 221° |
| 2026-05-04 21:31 | -6.70176 | 39.37979 | 4898 ft | 199 kts | 222° |
| 2026-05-04 21:32 | -6.71110 | 39.36989 | 4611 ft | 194 kts | 222° |
| 2026-05-04 21:32 | -6.72041 | 39.36018 | 4328 ft | 189 kts | 221° |
| 2026-05-04 21:32 | -6.72953 | 39.35089 | 4046 ft | 185 kts | 220° |
| 2026-05-04 21:32 | -6.73832 | 39.34202 | 3794 ft | 175 kts | 220° |
| 2026-05-04 21:33 | -6.74679 | 39.33354 | 3540 ft | 167 kts | 219° |
| 2026-05-04 21:33 | -6.75492 | 39.32547 | 3298 ft | 162 kts | 219° |
| 2026-05-04 21:33 | -6.76279 | 39.31764 | 3048 ft | 157 kts | 219° |
| 2026-05-04 21:33 | -6.77047 | 39.30995 | 2805 ft | 154 kts | 219° |
| 2026-05-04 21:34 | -6.77797 | 39.30246 | 2567 ft | 150 kts | 219° |
| 2026-05-04 21:34 | -6.78514 | 39.29520 | 2419 ft | 142 kts | 220° |
| 2026-05-04 21:34 | -6.79206 | 39.28826 | 2217 ft | 138 kts | 218° |
| 2026-05-04 21:34 | -6.79843 | 39.28189 | 2063 ft | 118 kts | 218° |
| 2026-05-04 21:35 | -6.80404 | 39.27630 | 1885 ft | 112 kts | 217° |
| 2026-05-04 21:35 | -6.80777 | 39.27271 | 1782 ft | 112 kts | 217° |
| 2026-05-04 21:35 | -6.81344 | 39.26737 | 1627 ft | 112 kts | 217° |
| 2026-05-04 21:35 | -6.81906 | 39.26202 | 1467 ft | 112 kts | 219° |
| 2026-05-04 21:36 | -6.82648 | 39.25468 | 1287 ft | 114 kts | 220° |
| 2026-05-04 21:36 | -6.83031 | 39.25086 | 1190 ft | 116 kts | 220° |
| 2026-05-04 21:36 | -6.83800 | 39.24321 | 996 ft | 120 kts | 221° |
| 2026-05-04 21:36 | -6.84198 | 39.23925 | 858 ft | 118 kts | 224° |
| 2026-05-04 21:37 | -6.84766 | 39.23334 | 658 ft | 115 kts | 227° |
| 2026-05-04 21:37 | -6.85329 | 39.22751 | 513 ft | 112 kts | 226° |
| 2026-05-04 21:37 | -6.85877 | 39.22199 | 360 ft | 114 kts | 225° |
| 2026-05-04 21:37 | -6.86434 | 39.21639 | 219 ft | 113 kts | 226° |
| 2026-05-04 21:38 | -6.86943 | 39.21123 | 180 ft | 72 kts | 225° |
| 2026-05-04 21:38 | -6.87149 | 39.20918 | 178 ft | 31 kts | 226° |
| 2026-05-04 21:38 | -6.87241 | 39.20821 | 179 ft | 15 kts | 244° |
| 2026-05-04 21:38 | -6.87223 | 39.20768 | 180 ft | 7 kts | 314° |
| 2026-05-04 21:39 | -6.87200 | 39.20744 | 180 ft | 1 kts | 315° |
| 2026-05-04 21:39 | -6.87191 | 39.20735 | 180 ft | 3 kts | 315° |
| 2026-05-04 21:39 | -6.87189 | 39.20733 | 180 ft | 0 kts | 315° |
| 2026-05-04 21:40 | -6.87180 | 39.20724 | 180 ft | 6 kts | 315° |
| 2026-05-04 21:40 | -6.87114 | 39.20718 | 181 ft | 14 kts | 35° |
| 2026-05-04 21:40 | -6.87037 | 39.20792 | 181 ft | 15 kts | 44° |
| 2026-05-04 21:41 | -6.86970 | 39.20859 | 181 ft | 13 kts | 44° |
| 2026-05-04 21:41 | -6.86898 | 39.20853 | 181 ft | 10 kts | 321° |
| 2026-05-04 21:41 | -6.86885 | 39.20799 | 181 ft | 7 kts | 236° |
| 2026-05-04 21:41 | -6.86928 | 39.20776 | 181 ft | 8 kts | 200° |
| 2026-05-04 21:42 | -6.86943 | 39.20728 | 181 ft | 9 kts | 287° |
| 2026-05-04 21:42 | -6.86916 | 39.20664 | 181 ft | 11 kts | 296° |
| 2026-05-04 21:42 | -6.86881 | 39.20587 | 181 ft | 11 kts | 295° |
| 2026-05-04 21:42 | -6.86846 | 39.20583 | 181 ft | 10 kts | 26° |
| 2026-05-04 21:43 | -6.86828 | 39.20591 | 181 ft | 0 kts | 17° |